EHBK

Maastricht Aachen Airport

Maastricht, The Netherlands
METAR EHBK 250555Z AUTO 34004KT 310V010 9000 FEW005 BKN010 OVC012 14/13 Q1024 TEMPO BKN008
Observed Flight Rules
Jun-25 @ 05:55 UTC (23 minutes ago) Marginal Visual Flight Rules
Wind Visibility Clouds
340° at 4 knots 8,996 meters
  • Few at 500' AGL
  • Broken at 1,000' AGL
  • Overcast at 1,200' AGL
Temperatures Readings
Current 14°C / 57°F
Dewpoint 13°C / 55°F
Humidity 94%
Altimeter 30.24" Hg
Pressure 1024 hPa
Elevation 116
METAR EHBK 250555Z AUTO 34004KT 310V010 9000 FEW005 BKN010 OVC012 14/13 Q1024 TEMPO BKN008
Observed Flight Rules
Jun-25 @ 05:55 UTC
(23 minutes ago)
MVFR
Wind Visibility
340° at 4 knots 8,996 meters
Clouds
  • Few at 500' AGL
  • Broken at 1,000' AGL
  • Overcast at 1,200' AGL
Temperature Dewpoint
14°C / 57°F 13°C / 55°F
Humidity Altimeter Pressure
94% 30.24" Hg 1024 hPa